Briarcliff, New York
Current Conditions -  °F | °C
As of 1:56 AM on Wednesday 26 Nov 2014 (Local Time) from KHPN Reporting Station
Scattered Clouds Scattered Clouds  
Wind Chill: 46°   Ceiling: Unl
Heat Index: 46°   Visibility: 10mi
Dew Point: 28°   Wind: 0mph
Humidity: 50%   Direction: NA
Pressure: 30.15"   Gusts: NA
Location:  41.1414°N, 73.8338°W
Report Text: KHPN 260656Z 00000KT 10SM SCT090 08/M02 A3015 RMK AO2 SLP214 T00781022
Loading
Personal Weather Stations






























Interactive Weather Map New forecast layout! Learn more

10-Day Weather Forecast

Advertisements
Track Severe Weather on mobile